createdAt,value
2022-10-19T00:09:10.590Z,100
2022-10-19T00:28:25.577Z,100
2022-10-19T00:38:02.023Z,100
2022-10-19T00:47:39.151Z,100
2022-10-19T00:57:18.006Z,100
2022-10-19T01:06:53.856Z,100
2022-10-19T01:16:32.957Z,100
2022-10-19T01:26:08.615Z,100
2022-10-19T01:35:45.755Z,100
2022-10-19T01:45:23.702Z,100
2022-10-19T01:55:00.536Z,100
2022-10-19T02:04:37.506Z,100
2022-10-19T02:14:15.015Z,100
2022-10-19T02:23:54.076Z,100
2022-10-19T02:33:27.793Z,100
2022-10-19T02:43:05.906Z,100
2022-10-19T02:52:42.775Z,100
2022-10-19T03:02:20.906Z,100
2022-10-19T03:12:00.252Z,100
2022-10-19T03:21:36.283Z,100
2022-10-19T03:31:12.546Z,100
2022-10-19T03:40:51.481Z,100
2022-10-19T03:50:29.176Z,100
2022-10-19T04:00:04.991Z,100
2022-10-19T04:09:41.985Z,100
2022-10-19T04:19:18.847Z,100
2022-10-19T04:28:56.180Z,100
2022-10-19T04:38:32.907Z,100
2022-10-19T04:48:10.594Z,100
2022-10-19T04:57:46.698Z,100
2022-10-19T05:17:00.840Z,100
2022-10-19T05:26:39.181Z,100
2022-10-19T05:36:15.497Z,100
2022-10-19T05:45:53.147Z,100
2022-10-19T05:55:29.568Z,100
2022-10-19T06:05:06.378Z,100
2022-10-19T06:14:43.415Z,100
2022-10-19T06:24:21.065Z,100
2022-10-19T06:33:58.607Z,100
2022-10-19T06:43:35.494Z,100
2022-10-19T06:53:13.277Z,100
2022-10-19T07:02:51.138Z,100
2022-10-19T07:12:28.551Z,100
2022-10-19T07:22:06.081Z,100
2022-10-19T07:31:43.581Z,100
2022-10-19T07:41:20.683Z,100
2022-10-19T07:50:58.713Z,100
2022-10-19T08:00:36.591Z,100
2022-10-19T08:10:14.303Z,100
2022-10-19T08:19:52.284Z,100
2022-10-19T08:29:31.366Z,100
2022-10-19T08:39:09.777Z,100
2022-10-19T08:48:46.924Z,95.01
2022-10-19T08:58:23.568Z,96.44
2022-10-19T09:07:59.821Z,90.76
2022-10-19T09:17:36.908Z,93.9
2022-10-19T09:27:14.200Z,90.21
2022-10-19T09:36:52.621Z,87.91
2022-10-19T09:46:30.099Z,89.31
2022-10-19T09:56:08.781Z,84.03
2022-10-19T10:05:47.438Z,80.13
2022-10-19T10:25:01.473Z,80.65
2022-10-19T10:34:51.183Z,77.12
2022-10-19T10:44:18.023Z,68.78
2022-10-19T10:53:55.429Z,72
2022-10-19T11:13:09.554Z,68.01
2022-10-19T11:32:28.342Z,70.91
2022-10-19T11:42:03.749Z,72.65
2022-10-19T11:51:39.764Z,67.16
2022-10-19T12:01:15.808Z,67.5
2022-10-19T12:10:52.113Z,65.6
2022-10-19T12:20:29.926Z,65.9
2022-10-19T12:30:07.787Z,62.34
2022-10-19T12:39:47.188Z,63.44
2022-10-19T12:49:29.460Z,67.97
2022-10-19T12:59:04.140Z,66.74
2022-10-19T13:08:41.127Z,66.65
2022-10-19T13:18:18.887Z,65.05
2022-10-19T13:27:57.913Z,63.2
2022-10-19T13:37:34.745Z,64.28
2022-10-19T13:47:09.205Z,62.9
2022-10-19T14:06:23.569Z,69.29
2022-10-19T14:16:01.857Z,70.32
2022-10-19T14:25:38.284Z,65.79
2022-10-19T14:44:50.727Z,67.5
2022-10-19T14:54:26.958Z,69.91
2022-10-19T15:04:03.786Z,71.58
2022-10-19T15:13:40.175Z,71.21
2022-10-19T15:23:17.756Z,70.55
2022-10-19T15:32:53.229Z,72.51
2022-10-19T15:42:29.688Z,72.86
2022-10-19T15:52:06.592Z,76.06
2022-10-19T16:01:42.991Z,75.38
2022-10-19T16:11:19.535Z,74.04
2022-10-19T16:20:56.549Z,76.74
2022-10-19T16:30:33.297Z,76.73
2022-10-19T16:40:10.298Z,81.85
2022-10-19T16:59:23.937Z,78.47
2022-10-19T17:09:30.102Z,78.37
2022-10-19T17:18:38.629Z,79.52
2022-10-19T17:37:52.481Z,78.85
2022-10-19T17:47:29.665Z,80.22
2022-10-19T17:57:08.002Z,80.77
2022-10-19T18:06:42.490Z,82.64
2022-10-19T18:16:18.332Z,85.77
2022-10-19T18:25:56.382Z,87.43
2022-10-19T18:35:31.257Z,89.42
2022-10-19T18:45:08.361Z,93.15
2022-10-19T18:54:43.715Z,95.8
2022-10-19T19:04:19.710Z,96.86
2022-10-19T19:13:55.863Z,100
2022-10-19T19:23:34.717Z,100
2022-10-19T19:33:09.497Z,100
2022-10-19T19:42:45.781Z,100
2022-10-19T19:52:23.814Z,100
2022-10-19T20:01:58.774Z,100
2022-10-19T20:11:41.219Z,100
2022-10-19T20:21:12.212Z,100
2022-10-19T20:30:50.772Z,100
2022-10-19T20:40:25.788Z,100
2022-10-19T20:59:39.103Z,100
2022-10-19T21:09:15.895Z,100
2022-10-19T21:18:53.434Z,100
2022-10-19T21:28:29.351Z,100
2022-10-19T21:38:05.900Z,100
2022-10-19T21:47:44.815Z,100
2022-10-19T21:57:20.297Z,100
2022-10-19T22:06:56.722Z,100
2022-10-19T22:16:32.661Z,100
2022-10-19T22:26:08.885Z,100
2022-10-19T22:35:45.771Z,100
2022-10-19T22:45:22.601Z,100
2022-10-19T22:54:59.407Z,100
2022-10-19T23:04:36.328Z,100
2022-10-19T23:14:13.445Z,100
2022-10-19T23:23:49.545Z,100
2022-10-19T23:33:28.630Z,100
2022-10-19T23:43:03.825Z,100
2022-10-19T23:52:40.481Z,100
